createdAt,value
2024-02-29T00:00:36.517Z,93.66
2024-02-29T00:01:36.249Z,93.55
2024-02-29T00:02:35.930Z,93.55
2024-02-29T00:03:58.350Z,93.66
2024-02-29T00:04:36.076Z,93.76
2024-02-29T00:05:36.333Z,93.76
2024-02-29T00:06:36.108Z,93.76
2024-02-29T00:07:36.317Z,93.76
2024-02-29T00:08:36.065Z,93.87
2024-02-29T00:09:36.406Z,93.97
2024-02-29T00:10:36.074Z,93.97
2024-02-29T00:11:35.806Z,93.76
2024-02-29T00:12:42.392Z,93.55
2024-02-29T00:13:58.098Z,93.55
2024-02-29T00:14:35.924Z,93.55
2024-02-29T00:15:36.219Z,93.35
2024-02-29T00:16:35.955Z,93.14
2024-02-29T00:17:36.204Z,93.14
2024-02-29T00:18:35.971Z,93.04
2024-02-29T00:19:36.185Z,93.04
2024-02-29T00:20:35.964Z,93.04
2024-02-29T00:21:37.215Z,93.04
2024-02-29T00:22:35.933Z,93.24
2024-02-29T00:23:57.020Z,93.04
2024-02-29T00:24:36.132Z,93.14
2024-02-29T00:25:35.852Z,93.45
2024-02-29T00:26:36.113Z,93.24
2024-02-29T00:27:35.952Z,93.14
2024-02-29T00:28:36.114Z,93.14
2024-02-29T00:29:35.854Z,93.04
2024-02-29T00:30:36.195Z,93.04
2024-02-29T00:31:35.859Z,92.79
2024-02-29T00:32:35.641Z,92.79
2024-02-29T00:33:57.919Z,92.68
2024-02-29T00:34:45.456Z,92.68
2024-02-29T00:35:35.728Z,92.68
2024-02-29T00:36:36.069Z,92.68
2024-02-29T00:37:35.769Z,92.68
2024-02-29T00:38:35.971Z,92.58
2024-02-29T00:39:35.741Z,92.58
2024-02-29T00:40:36.340Z,92.58
2024-02-29T00:41:35.712Z,92.48
2024-02-29T00:42:36.903Z,92.58
2024-02-29T00:43:57.768Z,92.48
2024-02-29T00:44:35.567Z,92.48
2024-02-29T00:45:35.887Z,92.48
2024-02-29T00:46:36.117Z,92.27
2024-02-29T00:47:35.873Z,92.27
2024-02-29T00:48:35.604Z,92.27
2024-02-29T00:49:35.825Z,92.38
2024-02-29T00:50:35.611Z,92.17
2024-02-29T00:51:35.953Z,92.02
2024-02-29T00:52:35.596Z,92.07
2024-02-29T00:53:55.852Z,92.27
2024-02-29T00:54:35.677Z,92.23
2024-02-29T00:55:35.829Z,92.27
2024-02-29T00:56:35.600Z,92.17
2024-02-29T00:57:35.870Z,92.44
2024-02-29T00:58:35.606Z,92.54
2024-02-29T00:59:35.374Z,92.54
2024-02-29T01:00:35.769Z,92.44
2024-02-29T01:01:35.459Z,92.54
2024-02-29T01:02:35.646Z,92.64
2024-02-29T01:03:56.632Z,92.64
2024-02-29T01:04:35.638Z,92.64
2024-02-29T01:05:35.389Z,92.74
2024-02-29T01:06:35.647Z,92.74
2024-02-29T01:07:35.366Z,92.74
2024-02-29T01:08:35.657Z,92.64
2024-02-29T01:09:35.900Z,92.64
2024-02-29T01:10:35.625Z,92.64
2024-02-29T01:11:35.358Z,92.64
2024-02-29T01:12:35.623Z,92.54
2024-02-29T01:13:55.355Z,92.44
2024-02-29T01:14:35.612Z,92.33
2024-02-29T01:15:35.426Z,92.44
2024-02-29T01:16:35.654Z,92.44
2024-02-29T01:17:35.425Z,92.54
2024-02-29T01:18:35.179Z,92.54
2024-02-29T01:19:35.462Z,92.54
2024-02-29T01:20:35.161Z,92.44
2024-02-29T01:21:35.475Z,92.44
2024-02-29T01:22:35.173Z,92.44
2024-02-29T01:23:55.409Z,92.54
2024-02-29T01:24:35.198Z,92.64
2024-02-29T01:25:35.422Z,92.74
2024-02-29T01:26:35.278Z,92.85
2024-02-29T01:27:35.469Z,92.95
2024-02-29T01:28:35.156Z,93.05
2024-02-29T01:29:35.402Z,93.05
2024-02-29T01:30:35.223Z,93.16
2024-02-29T01:31:35.421Z,93.16
2024-02-29T01:32:37.679Z,93.26
2024-02-29T01:33:56.146Z,93.37
2024-02-29T01:34:35.247Z,93.47
2024-02-29T01:35:35.011Z,93.57
2024-02-29T01:36:35.283Z,93.78
2024-02-29T01:37:40.347Z,93.88
2024-02-29T01:38:35.130Z,93.88
2024-02-29T01:39:35.414Z,93.88
2024-02-29T01:40:35.130Z,93.88
2024-02-29T01:41:35.378Z,93.98
2024-02-29T01:42:35.146Z,93.88
2024-02-29T01:43:57.478Z,93.98
2024-02-29T01:44:35.260Z,93.98
2024-02-29T01:45:35.030Z,94.09
2024-02-29T01:46:35.251Z,93.98
2024-02-29T01:47:35.053Z,93.98
2024-02-29T01:48:35.271Z,93.88
2024-02-29T01:49:34.994Z,93.88
2024-02-29T01:50:35.264Z,93.88
2024-02-29T01:51:35.036Z,93.88
2024-02-29T01:52:35.273Z,93.73
2024-02-29T01:53:57.032Z,93.78
2024-02-29T01:54:34.840Z,93.73
2024-02-29T01:55:35.113Z,93.84
2024-02-29T01:56:34.802Z,93.94
2024-02-29T01:57:35.096Z,93.94
2024-02-29T01:58:34.790Z,93.94
2024-02-29T01:59:35.061Z,93.94
2024-02-29T02:00:34.836Z,94.04
2024-02-29T02:01:35.172Z,94.04
2024-02-29T02:02:34.771Z,94.04
2024-02-29T02:03:55.610Z,94.15
2024-02-29T02:04:34.872Z,94.15
2024-02-29T02:05:35.126Z,94.15
2024-02-29T02:06:34.983Z,94.25
2024-02-29T02:07:35.129Z,94.25
2024-02-29T02:08:34.878Z,94.25
2024-02-29T02:09:35.149Z,94.25
2024-02-29T02:10:34.896Z,94.25
2024-02-29T02:11:34.654Z,94.31
2024-02-29T02:12:34.889Z,94.42
2024-02-29T02:13:56.660Z,94.52
2024-02-29T02:14:34.947Z,94.42
2024-02-29T02:15:34.734Z,94.42
2024-02-29T02:16:34.948Z,94.42
2024-02-29T02:17:34.882Z,94.52
2024-02-29T02:18:34.996Z,94.52
2024-02-29T02:19:34.719Z,94.52
2024-02-29T02:20:42.284Z,94.52
2024-02-29T02:21:34.587Z,94.52
2024-02-29T02:22:34.802Z,94.52
2024-02-29T02:23:56.061Z,94.62
2024-02-29T02:24:34.927Z,94.72
2024-02-29T02:25:34.637Z,94.72
2024-02-29T02:26:34.872Z,94.72
2024-02-29T02:27:34.718Z,94.82
2024-02-29T02:28:34.886Z,94.82
2024-02-29T02:29:34.644Z,94.82
2024-02-29T02:30:34.933Z,94.93
2024-02-29T02:31:34.652Z,95.03
2024-02-29T02:32:34.914Z,95.03
2024-02-29T02:33:55.391Z,94.99
2024-02-29T02:34:34.656Z,94.89
2024-02-29T02:35:35.320Z,94.89
2024-02-29T02:36:36.247Z,94.99
2024-02-29T02:37:35.089Z,94.99
2024-02-29T02:38:35.111Z,94.99
2024-02-29T02:39:35.791Z,94.99
2024-02-29T02:40:36.760Z,94.99
2024-02-29T02:41:36.571Z,94.99
2024-02-29T02:42:36.384Z,94.99
2024-02-29T02:45:11.056Z,94.99
2024-02-29T02:46:10.572Z,95.09
2024-02-29T02:47:10.733Z,95.09
2024-02-29T02:48:10.616Z,95.09
2024-02-29T02:49:12.204Z,95.09
2024-02-29T02:50:17.839Z,95.09
2024-02-29T02:51:12.537Z,95.20
2024-02-29T02:52:10.504Z,95.20
2024-02-29T02:53:12.012Z,95.20
2024-02-29T02:54:31.360Z,95.20
2024-02-29T02:55:10.756Z,95.20
2024-02-29T02:56:10.388Z,95.30
2024-02-29T02:57:10.621Z,95.30
2024-02-29T02:58:10.555Z,95.30
2024-02-29T02:59:12.564Z,95.30
2024-02-29T03:00:10.513Z,95.40
2024-02-29T03:01:10.174Z,95.40
2024-02-29T03:02:10.504Z,95.36
2024-02-29T03:03:10.123Z,95.36
2024-02-29T03:04:31.087Z,95.46
2024-02-29T03:05:10.337Z,95.46
2024-02-29T03:06:11.316Z,95.46
2024-02-29T03:07:10.231Z,95.46
2024-02-29T03:08:10.444Z,95.46
2024-02-29T03:09:10.185Z,95.46
2024-02-29T03:10:10.691Z,95.46
2024-02-29T03:11:10.241Z,95.56
2024-02-29T03:12:12.367Z,95.56
2024-02-29T03:13:10.302Z,95.56
2024-02-29T03:14:32.461Z,95.67
2024-02-29T03:15:10.256Z,95.71
2024-02-29T03:16:12.018Z,95.67
2024-02-29T03:17:10.257Z,95.77
2024-02-29T03:18:18.247Z,95.77
2024-02-29T03:19:11.612Z,95.87
2024-02-29T03:20:10.351Z,95.87
2024-02-29T03:21:10.107Z,95.87
2024-02-29T03:22:10.633Z,95.87
2024-02-29T03:23:10.106Z,95.98
2024-02-29T03:24:30.357Z,95.98
2024-02-29T03:25:10.230Z,95.98
2024-02-29T03:26:10.329Z,95.98
2024-02-29T03:27:10.152Z,95.98
2024-02-29T03:28:10.353Z,95.98
2024-02-29T03:29:12.041Z,95.87
2024-02-29T03:30:09.830Z,95.87
2024-02-29T03:31:10.169Z,95.87
2024-02-29T03:32:09.843Z,95.87
2024-02-29T03:33:12.135Z,95.98
2024-02-29T03:34:30.884Z,95.98
2024-02-29T03:35:10.210Z,95.87
2024-02-29T03:36:09.960Z,95.98
2024-02-29T03:37:10.223Z,95.98
2024-02-29T03:38:10.192Z,95.98
2024-02-29T03:39:10.211Z,95.98
2024-02-29T03:40:09.964Z,95.98
2024-02-29T03:41:12.125Z,95.98
2024-02-29T03:42:09.918Z,95.98
2024-02-29T03:43:10.248Z,95.87
2024-02-29T03:44:29.936Z,95.87
2024-02-29T03:45:10.229Z,95.87
2024-02-29T03:46:11.986Z,95.73
2024-02-29T03:47:09.694Z,95.73
2024-02-29T03:48:10.391Z,95.62
2024-02-29T03:49:10.648Z,95.62
2024-02-29T03:50:09.918Z,95.62
2024-02-29T03:51:10.166Z,95.62
2024-02-29T03:52:09.980Z,95.62
2024-02-29T03:53:09.671Z,95.62
2024-02-29T03:54:35.251Z,95.73
2024-02-29T03:55:09.983Z,95.73
2024-02-29T03:56:09.703Z,95.73
2024-02-29T03:57:11.901Z,95.73
2024-02-29T03:58:09.791Z,95.73
2024-02-29T03:59:09.967Z,95.62
2024-02-29T04:00:09.757Z,95.52
2024-02-29T04:01:10.122Z,95.52
2024-02-29T04:02:09.811Z,95.52
2024-02-29T04:03:09.999Z,95.42
2024-02-29T04:04:29.764Z,95.42
2024-02-29T04:05:10.044Z,95.42
2024-02-29T04:06:10.113Z,95.42
2024-02-29T04:07:09.510Z,95.31
2024-02-29T04:08:11.674Z,95.31
2024-02-29T04:09:09.969Z,95.21
2024-02-29T04:10:09.818Z,95.17
2024-02-29T04:11:09.503Z,95.17
2024-02-29T04:12:09.707Z,95.06
2024-02-29T04:13:11.476Z,95.06
2024-02-29T04:14:29.821Z,94.96
2024-02-29T04:15:11.459Z,94.96
2024-02-29T04:16:09.776Z,95.06
2024-02-29T04:17:09.510Z,94.96
2024-02-29T04:18:09.794Z,94.96
2024-02-29T04:19:11.112Z,94.96
2024-02-29T04:20:10.152Z,94.96
2024-02-29T04:21:09.580Z,94.96
2024-02-29T04:22:09.875Z,95.06
2024-02-29T04:23:09.550Z,95.06
2024-02-29T04:24:29.824Z,95.06
2024-02-29T04:25:09.597Z,95.06
2024-02-29T04:26:11.764Z,94.96
2024-02-29T04:27:11.514Z,94.96
2024-02-29T04:28:09.324Z,94.85
2024-02-29T04:29:09.570Z,94.85
2024-02-29T04:30:09.317Z,94.76
2024-02-29T04:31:11.550Z,94.85
2024-02-29T04:32:09.330Z,94.76
2024-02-29T04:33:09.608Z,94.85
2024-02-29T04:34:29.366Z,94.65
2024-02-29T04:35:09.572Z,94.55
2024-02-29T04:36:09.557Z,94.55
2024-02-29T04:37:09.677Z,94.45
2024-02-29T04:38:10.257Z,94.45
2024-02-29T04:39:09.561Z,94.45
2024-02-29T04:40:11.146Z,94.30
2024-02-29T04:41:09.540Z,94.30
2024-02-29T04:42:09.310Z,94.30
2024-02-29T04:43:09.615Z,94.30
2024-02-29T04:44:29.340Z,94.30
2024-02-29T04:45:09.121Z,94.30
2024-02-29T04:46:09.635Z,94.20
2024-02-29T04:47:09.080Z,94.20
2024-02-29T04:48:09.368Z,94.20
2024-02-29T04:49:09.184Z,94.09
2024-02-29T04:50:10.291Z,94.09
2024-02-29T04:51:09.072Z,94.09
2024-02-29T04:52:09.422Z,93.99
2024-02-29T04:53:09.074Z,93.99
2024-02-29T04:54:29.330Z,94.09
2024-02-29T04:55:09.139Z,94.09
2024-02-29T04:56:10.159Z,94.09
2024-02-29T04:57:11.054Z,94.09
2024-02-29T04:58:11.303Z,94.09
2024-02-29T04:59:10.201Z,94.09
2024-02-29T05:00:09.401Z,94.09
2024-02-29T05:01:10.174Z,94.20
2024-02-29T05:02:11.364Z,94.20
2024-02-29T05:03:09.148Z,94.09
2024-02-29T05:04:29.404Z,93.99
2024-02-29T05:05:09.209Z,94.09
2024-02-29T05:06:08.904Z,93.99
2024-02-29T05:07:09.196Z,93.99
2024-02-29T05:08:08.888Z,93.79
2024-02-29T05:09:09.162Z,93.79
2024-02-29T05:10:09.275Z,93.88
2024-02-29T05:11:09.181Z,93.79
2024-02-29T05:12:08.904Z,93.79
2024-02-29T05:13:11.257Z,93.79
2024-02-29T05:14:28.950Z,93.79
2024-02-29T05:15:09.242Z,93.79
2024-02-29T05:16:09.113Z,93.79
2024-02-29T05:17:11.688Z,93.79
2024-02-29T05:18:10.447Z,93.68
2024-02-29T05:19:09.318Z,93.68
2024-02-29T05:20:09.943Z,93.68
2024-02-29T05:21:08.747Z,93.79
2024-02-29T05:22:09.051Z,93.79
2024-02-29T05:23:08.756Z,93.68
2024-02-29T05:24:29.006Z,93.79
2024-02-29T05:25:08.821Z,93.68
2024-02-29T05:26:10.944Z,93.79
2024-02-29T05:27:08.805Z,93.79
2024-02-29T05:28:09.811Z,93.79
2024-02-29T05:29:08.792Z,93.99
2024-02-29T05:30:08.999Z,93.99
2024-02-29T05:31:08.825Z,94.09
2024-02-29T05:32:09.023Z,93.99
2024-02-29T05:33:08.773Z,93.99
2024-02-29T05:34:28.993Z,93.99
2024-02-29T05:35:08.820Z,93.79
2024-02-29T05:36:08.982Z,93.88
2024-02-29T05:37:09.751Z,93.79
2024-02-29T05:38:08.931Z,93.79
2024-02-29T05:39:08.701Z,93.79
2024-02-29T05:40:14.546Z,93.74
2024-02-29T05:41:08.629Z,93.79
2024-02-29T05:42:09.715Z,93.74
2024-02-29T05:43:08.549Z,93.74
2024-02-29T05:44:28.777Z,93.74
2024-02-29T05:45:08.519Z,93.74
2024-02-29T05:46:08.853Z,93.64
2024-02-29T05:47:08.526Z,93.74
2024-02-29T05:48:08.805Z,93.74
2024-02-29T05:49:08.606Z,93.84
2024-02-29T05:50:10.759Z,93.95
2024-02-29T05:51:08.537Z,93.95
2024-02-29T05:52:08.837Z,93.84
2024-02-29T05:53:08.592Z,93.95
2024-02-29T05:54:28.794Z,93.95
2024-02-29T05:55:08.542Z,93.95
2024-02-29T05:56:08.800Z,94.05
2024-02-29T05:57:08.569Z,94.05
2024-02-29T05:58:10.285Z,94.05
2024-02-29T05:59:09.471Z,94.05
2024-02-29T06:00:09.761Z,94.05
2024-02-29T06:01:08.594Z,94.15
2024-02-29T06:02:08.469Z,94.15
2024-02-29T06:03:08.591Z,94.15
2024-02-29T06:04:28.863Z,94.05
2024-02-29T06:05:08.592Z,94.05
2024-02-29T06:06:08.832Z,94.05
2024-02-29T06:07:08.616Z,94.05
2024-02-29T06:08:08.365Z,94.05
2024-02-29T06:09:08.552Z,94.15
2024-02-29T06:10:08.346Z,94.26
2024-02-29T06:11:08.920Z,94.15
2024-02-29T06:12:08.317Z,94.15
2024-02-29T06:13:08.616Z,94.15
2024-02-29T06:14:28.325Z,94.26
2024-02-29T06:15:10.894Z,94.36
2024-02-29T06:16:08.364Z,94.46
2024-02-29T06:17:08.559Z,94.46
2024-02-29T06:18:08.445Z,94.46
2024-02-29T06:19:08.640Z,94.46
2024-02-29T06:20:09.941Z,94.36
2024-02-29T06:21:15.556Z,94.26
2024-02-29T06:22:08.353Z,94.26
2024-02-29T06:23:08.558Z,94.26
2024-02-29T06:24:30.297Z,94.26
2024-02-29T06:25:08.636Z,94.26
2024-02-29T06:26:08.328Z,94.26
2024-02-29T06:27:08.076Z,94.26
2024-02-29T06:28:08.345Z,94.36
2024-02-29T06:29:08.073Z,94.46
2024-02-29T06:30:08.301Z,94.56
2024-02-29T06:31:09.142Z,94.56
2024-02-29T06:32:08.312Z,94.56
2024-02-29T06:33:09.075Z,94.46
2024-02-29T06:34:28.375Z,94.46
2024-02-29T06:35:08.125Z,94.46
2024-02-29T06:36:10.449Z,94.46
2024-02-29T06:37:08.149Z,94.46
2024-02-29T06:38:09.331Z,94.46
2024-02-29T06:39:08.176Z,94.36
2024-02-29T06:40:09.360Z,94.46
2024-02-29T06:41:08.148Z,94.46
2024-02-29T06:42:07.883Z,94.56
2024-02-29T06:43:08.222Z,94.56
2024-02-29T06:44:28.396Z,94.87
2024-02-29T06:45:09.166Z,94.98
2024-02-29T06:46:08.092Z,95.18
2024-02-29T06:47:08.161Z,95.28
2024-02-29T06:48:07.381Z,95.28
2024-02-29T06:49:07.331Z,95.28
2024-02-29T06:50:07.322Z,95.39
2024-02-29T06:51:07.285Z,95.59
2024-02-29T06:52:07.425Z,95.70
2024-02-29T06:53:07.268Z,95.70
2024-02-29T06:54:27.383Z,95.90
2024-02-29T06:55:07.288Z,96.00
2024-02-29T06:56:07.270Z,96.11
2024-02-29T06:57:07.243Z,96.11
2024-02-29T06:58:07.318Z,96.11
2024-02-29T06:59:07.215Z,96.21
2024-02-29T07:00:07.573Z,96.21
2024-02-29T07:01:07.294Z,96.31
2024-02-29T07:02:10.969Z,96.42
2024-02-29T07:03:07.755Z,96.52
2024-02-29T07:04:27.973Z,96.52
2024-02-29T07:05:07.742Z,96.62
2024-02-29T07:06:07.969Z,96.72
2024-02-29T07:07:07.762Z,96.72
2024-02-29T07:08:07.972Z,96.83
2024-02-29T07:09:07.725Z,96.93
2024-02-29T07:10:08.138Z,96.93
2024-02-29T07:11:07.774Z,96.93
2024-02-29T07:12:07.071Z,96.93
2024-02-29T07:13:07.906Z,96.93
2024-02-29T07:14:28.068Z,96.89
2024-02-29T07:15:07.898Z,96.89
2024-02-29T07:16:07.669Z,96.89
2024-02-29T07:17:07.875Z,96.89
2024-02-29T07:18:07.668Z,96.99
2024-02-29T07:19:07.919Z,96.99
2024-02-29T07:20:07.614Z,96.99
2024-02-29T07:21:07.863Z,97.09
2024-02-29T07:22:08.622Z,97.09
2024-02-29T07:23:07.873Z,96.99
2024-02-29T07:24:27.633Z,96.99
2024-02-29T07:25:07.871Z,96.99
2024-02-29T07:26:07.604Z,96.99
2024-02-29T07:27:07.855Z,97.09
2024-02-29T07:28:07.630Z,96.99
2024-02-29T07:29:07.893Z,96.99
2024-02-29T07:30:07.605Z,97.09
2024-02-29T07:31:07.928Z,96.99
2024-02-29T07:32:07.593Z,96.99
2024-02-29T07:33:14.742Z,96.99
2024-02-29T07:34:27.476Z,96.78
2024-02-29T07:35:08.547Z,96.73
2024-02-29T07:36:07.537Z,96.64
2024-02-29T07:37:07.683Z,96.64
2024-02-29T07:38:07.658Z,96.53
2024-02-29T07:39:07.677Z,96.53
2024-02-29T07:40:07.523Z,96.64
2024-02-29T07:41:07.686Z,96.43
2024-02-29T07:42:07.434Z,96.33
2024-02-29T07:43:10.524Z,96.33
2024-02-29T07:44:27.439Z,96.12
2024-02-29T07:45:07.675Z,95.92
2024-02-29T07:46:07.445Z,95.81
2024-02-29T07:47:14.930Z,95.81
2024-02-29T07:48:09.750Z,95.92
2024-02-29T07:49:08.439Z,95.92
2024-02-29T07:50:09.179Z,95.92
2024-02-29T07:51:08.439Z,95.77
2024-02-29T07:52:07.290Z,95.67
2024-02-29T07:53:07.482Z,95.56
2024-02-29T07:54:27.328Z,95.77
2024-02-29T07:55:07.565Z,95.77
2024-02-29T07:56:07.222Z,95.67
2024-02-29T07:57:07.486Z,95.56
2024-02-29T07:58:07.206Z,95.46
2024-02-29T07:59:08.413Z,95.56
2024-02-29T08:00:07.239Z,95.56
2024-02-29T08:01:12.869Z,95.36
2024-02-29T08:02:07.688Z,95.36
2024-02-29T08:03:08.274Z,95.36
2024-02-29T08:04:27.581Z,95.42
2024-02-29T08:05:08.269Z,95.46
2024-02-29T08:06:07.124Z,95.52
2024-02-29T08:07:07.395Z,95.42
2024-02-29T08:08:07.121Z,95.21
2024-02-29T08:09:10.334Z,95.10
2024-02-29T08:10:07.189Z,95.01
2024-02-29T08:11:07.367Z,95.01
2024-02-29T08:12:07.130Z,95.01
2024-02-29T08:13:07.367Z,94.90
2024-02-29T08:14:27.181Z,94.70
2024-02-29T08:15:07.418Z,94.59
2024-02-29T08:16:07.281Z,94.59
2024-02-29T08:17:06.940Z,94.59
2024-02-29T08:18:07.235Z,94.29
2024-02-29T08:19:07.472Z,94.39
2024-02-29T08:20:07.230Z,94.34
2024-02-29T08:21:06.928Z,94.14
2024-02-29T08:22:07.298Z,93.83
2024-02-29T08:23:06.950Z,93.73
2024-02-29T08:24:27.220Z,93.52
2024-02-29T08:25:06.989Z,93.52
2024-02-29T08:26:07.260Z,93.63
2024-02-29T08:27:06.981Z,93.63
2024-02-29T08:28:07.342Z,93.32
2024-02-29T08:29:14.337Z,93.07
2024-02-29T08:30:08.955Z,92.97
2024-02-29T08:31:06.840Z,92.86
2024-02-29T08:32:07.121Z,92.55
2024-02-29T08:33:07.068Z,92.35
2024-02-29T08:34:27.146Z,92.55
2024-02-29T08:35:06.831Z,92.66
2024-02-29T08:36:07.062Z,92.86
2024-02-29T08:37:06.859Z,92.93
2024-02-29T08:38:07.075Z,92.72
2024-02-29T08:39:06.817Z,92.41
2024-02-29T08:40:07.182Z,92.41
2024-02-29T08:41:06.833Z,91.80
2024-02-29T08:42:08.000Z,91.80
2024-02-29T08:43:06.946Z,91.90
2024-02-29T08:44:27.046Z,91.49
2024-02-29T08:45:06.793Z,91.38
2024-02-29T08:46:07.186Z,91.59
2024-02-29T08:47:06.884Z,91.59
2024-02-29T08:48:07.169Z,91.38
2024-02-29T08:49:08.941Z,91.49
2024-02-29T08:50:06.683Z,91.18
2024-02-29T08:51:06.908Z,91.08
2024-02-29T08:52:06.707Z,91.28
2024-02-29T08:53:06.900Z,91.59
2024-02-29T08:54:26.663Z,91.44
2024-02-29T08:55:06.928Z,91.24
2024-02-29T08:56:06.654Z,91.24
2024-02-29T08:57:06.919Z,91.14
2024-02-29T08:58:06.746Z,91.44
2024-02-29T08:59:06.934Z,91.65
2024-02-29T09:00:06.693Z,91.44
2024-02-29T09:01:07.012Z,91.35
2024-02-29T09:02:06.964Z,91.35
2024-02-29T09:03:06.915Z,91.35
2024-02-29T09:04:26.687Z,91.55
2024-02-29T09:05:06.917Z,91.55
2024-02-29T09:06:06.676Z,91.24
2024-02-29T09:07:08.436Z,91.44
2024-02-29T09:08:07.792Z,91.35
2024-02-29T09:09:08.606Z,91.24
2024-02-29T09:10:08.559Z,91.14
2024-02-29T09:11:08.943Z,91.35
2024-02-29T09:12:06.777Z,91.55
2024-02-29T09:13:20.129Z,91.44
2024-02-29T09:14:27.832Z,91.35
2024-02-29T09:15:08.155Z,91.35
2024-02-29T09:16:07.478Z,91.55
2024-02-29T09:17:08.248Z,91.35
2024-02-29T09:18:07.584Z,91.44
2024-02-29T09:19:08.481Z,91.65
2024-02-29T09:20:08.312Z,91.65
2024-02-29T09:21:08.790Z,91.75
2024-02-29T09:22:07.661Z,91.65
2024-02-29T09:23:07.368Z,91.55
2024-02-29T09:24:26.720Z,91.65
2024-02-29T09:25:08.486Z,91.86
2024-02-29T09:26:07.265Z,92.06
2024-02-29T09:27:08.559Z,92.27
2024-02-29T09:28:08.391Z,92.06
2024-02-29T09:29:07.683Z,92.16
2024-02-29T09:30:07.325Z,92.27
2024-02-29T09:31:08.365Z,92.36
2024-02-29T09:32:09.151Z,92.57
2024-02-29T09:33:08.437Z,92.43
2024-02-29T09:34:36.457Z,92.32
2024-02-29T09:35:07.323Z,92.27
2024-02-29T09:36:07.532Z,92.32
2024-02-29T09:37:07.403Z,92.43
2024-02-29T09:38:08.170Z,92.32
2024-02-29T09:39:07.448Z,92.32
2024-02-29T09:40:08.396Z,92.22
2024-02-29T09:41:18.619Z,92.12
2024-02-29T09:42:13.576Z,92.32
2024-02-29T09:43:07.265Z,92.22
2024-02-29T09:44:26.516Z,92.22
2024-02-29T09:45:08.233Z,92.32
2024-02-29T09:46:07.602Z,92.12
2024-02-29T09:47:07.348Z,92.02
2024-02-29T09:48:08.144Z,92.02
2024-02-29T09:49:06.624Z,91.71
2024-02-29T09:50:07.250Z,91.82
2024-02-29T09:51:07.709Z,91.87
2024-02-29T09:52:06.843Z,91.87
2024-02-29T09:53:07.870Z,91.77
2024-02-29T09:54:26.206Z,91.77
2024-02-29T09:55:06.422Z,91.56
2024-02-29T09:56:07.302Z,91.56
2024-02-29T09:57:10.619Z,91.56
2024-02-29T09:58:06.869Z,91.67
2024-02-29T09:59:07.278Z,91.56
2024-02-29T10:00:08.061Z,91.56
2024-02-29T10:01:07.940Z,91.56
2024-02-29T10:02:08.248Z,91.46
2024-02-29T10:03:07.046Z,91.46
2024-02-29T10:04:26.374Z,91.36
2024-02-29T10:05:08.062Z,91.36
2024-02-29T10:06:07.922Z,91.26
2024-02-29T10:07:08.216Z,91.26
2024-02-29T10:08:08.006Z,90.95
2024-02-29T10:09:06.562Z,91.05
2024-02-29T10:10:07.534Z,91.05
2024-02-29T10:11:06.761Z,90.95
2024-02-29T10:12:07.997Z,90.95
2024-02-29T10:13:07.817Z,91.26
2024-02-29T10:14:26.167Z,90.95
2024-02-29T10:15:07.872Z,91.05
2024-02-29T10:16:08.173Z,91.05
2024-02-29T10:17:07.482Z,90.84
2024-02-29T10:18:08.772Z,90.84
2024-02-29T10:19:08.092Z,90.54
2024-02-29T10:20:08.328Z,90.54
2024-02-29T10:21:07.653Z,90.75
2024-02-29T10:22:07.027Z,90.84
2024-02-29T10:23:06.842Z,90.64
2024-02-29T10:24:25.658Z,90.54
2024-02-29T10:25:07.946Z,90.64
2024-02-29T10:26:06.356Z,90.70
2024-02-29T10:27:08.045Z,90.39
2024-02-29T10:28:08.483Z,90.50
2024-02-29T10:29:07.737Z,90.30
2024-02-29T10:30:07.174Z,90.50
2024-02-29T10:31:07.000Z,90.70
2024-02-29T10:32:06.796Z,90.19
2024-02-29T10:33:07.666Z,89.78
2024-02-29T10:34:26.133Z,89.98
2024-02-29T10:35:07.255Z,89.68
2024-02-29T10:36:07.534Z,89.47
2024-02-29T10:37:06.482Z,89.43
2024-02-29T10:38:06.718Z,89.43
2024-02-29T10:39:06.584Z,89.43
2024-02-29T10:40:08.690Z,89.43
2024-02-29T10:41:07.731Z,89.74
2024-02-29T10:42:07.536Z,89.64
2024-02-29T10:43:07.911Z,89.64
2024-02-29T10:44:25.705Z,89.43
2024-02-29T10:45:07.483Z,89.12
2024-02-29T10:46:07.832Z,89.03
2024-02-29T10:47:07.612Z,89.03
2024-02-29T10:48:06.454Z,88.82
2024-02-29T10:49:07.737Z,89.03
2024-02-29T10:50:06.337Z,88.92
2024-02-29T10:51:06.396Z,88.57
2024-02-29T10:52:06.716Z,88.98
2024-02-29T10:53:09.831Z,88.88
2024-02-29T10:54:25.642Z,88.88
2024-02-29T10:55:07.227Z,88.68
2024-02-29T10:56:07.718Z,88.47
2024-02-29T10:57:07.566Z,88.47
2024-02-29T10:58:07.553Z,88.17
2024-02-29T10:59:07.344Z,88.17
2024-02-29T11:00:07.157Z,88.37
2024-02-29T11:01:06.420Z,88.17
2024-02-29T11:02:07.370Z,87.85
2024-02-29T11:03:07.608Z,87.76
2024-02-29T11:04:25.511Z,87.45
2024-02-29T11:05:07.663Z,87.65
2024-02-29T11:06:06.240Z,87.65
2024-02-29T11:07:07.177Z,87.76
2024-02-29T11:08:06.006Z,87.55
2024-02-29T11:09:07.539Z,87.71
2024-02-29T11:10:07.458Z,87.76
2024-02-29T11:11:06.226Z,87.76
2024-02-29T11:12:05.867Z,87.71
2024-02-29T11:13:07.422Z,87.92
2024-02-29T11:14:26.590Z,87.92
2024-02-29T11:15:07.417Z,88.33
2024-02-29T11:16:07.300Z,87.92
2024-02-29T11:17:07.083Z,88.02
2024-02-29T11:18:06.462Z,87.82
2024-02-29T11:19:06.264Z,88.02
2024-02-29T11:20:06.054Z,87.71
2024-02-29T11:21:06.450Z,87.71
2024-02-29T11:22:07.045Z,87.71
2024-02-29T11:23:10.947Z,87.61
2024-02-29T11:24:26.437Z,87.82
2024-02-29T11:25:06.713Z,87.61
2024-02-29T11:26:07.486Z,87.82
2024-02-29T11:27:07.234Z,88.23
2024-02-29T11:28:07.057Z,87.92
2024-02-29T11:29:07.482Z,87.82
2024-02-29T11:30:06.278Z,87.71
2024-02-29T11:31:06.155Z,88.02
2024-02-29T11:32:08.894Z,88.12
2024-02-29T11:33:06.834Z,88.02
2024-02-29T11:34:25.226Z,88.02
2024-02-29T11:35:05.858Z,88.43
2024-02-29T11:36:05.884Z,88.12
2024-02-29T11:37:07.122Z,88.12
2024-02-29T11:38:06.862Z,88.23
2024-02-29T11:39:07.191Z,88.23
2024-02-29T11:40:07.225Z,88.33
2024-02-29T11:41:04.863Z,88.64
2024-02-29T11:42:05.131Z,88.74
2024-02-29T11:43:04.897Z,89.04
2024-02-29T11:44:26.338Z,88.64
2024-02-29T11:45:05.016Z,88.64
2024-02-29T11:46:06.849Z,88.74
2024-02-29T11:47:05.063Z,89.25
2024-02-29T11:48:04.946Z,89.35
2024-02-29T11:49:05.080Z,89.65
2024-02-29T11:50:04.840Z,89.65
2024-02-29T11:51:05.095Z,90.06
2024-02-29T11:52:05.938Z,89.97
2024-02-29T11:53:07.557Z,90.78
2024-02-29T11:54:27.115Z,90.99
2024-02-29T11:55:06.701Z,91.19
2024-02-29T11:56:15.193Z,91.60
2024-02-29T11:57:07.712Z,91.50
2024-02-29T11:58:07.009Z,91.29
2024-02-29T11:59:06.779Z,91.19
2024-02-29T12:00:07.007Z,91.54
2024-02-29T12:01:05.659Z,91.64
2024-02-29T12:02:06.479Z,91.74
2024-02-29T12:03:06.420Z,91.74
2024-02-29T12:04:26.845Z,91.23
2024-02-29T12:05:05.096Z,91.33
2024-02-29T12:06:05.790Z,91.64
2024-02-29T12:07:06.608Z,91.95
2024-02-29T12:08:06.874Z,91.95
2024-02-29T12:09:06.578Z,92.15
2024-02-29T12:10:06.897Z,92.36
2024-02-29T12:11:05.426Z,92.46
2024-02-29T12:12:04.935Z,92.46
2024-02-29T12:13:04.724Z,92.36
2024-02-29T12:14:26.059Z,91.85
2024-02-29T12:15:04.762Z,91.64
2024-02-29T12:16:06.540Z,91.74
2024-02-29T12:17:04.804Z,91.85
2024-02-29T12:18:04.536Z,92.05
2024-02-29T12:19:04.890Z,92.05
2024-02-29T12:20:04.552Z,92.05
2024-02-29T12:21:04.843Z,92.36
2024-02-29T12:22:04.626Z,92.36
2024-02-29T12:23:04.848Z,92.46
2024-02-29T12:24:25.294Z,92.77
2024-02-29T12:25:04.461Z,92.77
2024-02-29T12:26:04.768Z,92.87
2024-02-29T12:27:05.370Z,92.97
2024-02-29T12:28:04.749Z,93.18
2024-02-29T12:29:05.416Z,93.28
2024-02-29T12:30:05.672Z,93.69
2024-02-29T12:31:04.570Z,93.59
2024-02-29T12:32:06.245Z,93.79
2024-02-29T12:33:04.739Z,93.69
2024-02-29T12:34:26.852Z,93.93
2024-02-29T12:35:05.560Z,93.84
2024-02-29T12:36:06.425Z,94.45
2024-02-29T12:37:05.608Z,94.65
2024-02-29T12:38:04.577Z,94.85
2024-02-29T12:39:04.712Z,95.17
2024-02-29T12:40:05.476Z,95.17
2024-02-29T12:41:06.723Z,95.17
2024-02-29T12:42:04.601Z,95.37
2024-02-29T12:43:04.376Z,95.57
2024-02-29T12:44:26.528Z,95.88
2024-02-29T12:45:04.341Z,95.57
2024-02-29T12:46:04.880Z,95.78
2024-02-29T12:47:05.316Z,95.98
2024-02-29T12:48:05.630Z,95.98
2024-02-29T12:49:03.685Z,96.19
2024-02-29T12:50:04.405Z,96.45
2024-02-29T12:51:04.124Z,96.55
2024-02-29T12:52:04.411Z,96.55
2024-02-29T12:53:04.136Z,96.55
2024-02-29T12:54:26.062Z,96.25